Time;durP1;ratioP1;P1;durP2;ratioP2;P2;SDS_P1;SDS_P2;PMS_P1;PMS_P2;Temp;Humidity;BMP_temperature;BMP_pressure;BME280_temperature;BME280_humidity;BME280_pressure;Samples;Min_cycle;Max_cycle;Signal;HPM_P1;HPM_P2
2021/11/28 00:01:06;;;;;;;12.88;4.80;;;2.00;99.90;;;;;;5048331;28;20025;-74
2021/11/28 00:03:34;;;;;;;5.28;4.78;;;2.00;99.90;;;;;;5046245;28;20034;-73
2021/11/28 00:06:06;;;;;;;8.60;4.75;;;2.00;99.90;;;;;;5021613;28;20053;-74
2021/11/28 00:16:00;;;;;;;7.50;5.60;;;2.10;99.90;;;;;;5033943;28;20440;-74
2021/11/28 00:18:27;;;;;;;14.32;13.00;;;2.10;99.70;;;;;;5033979;28;20474;-74
2021/11/28 00:20:53;;;;;;;8.48;7.05;;;2.10;99.70;;;;;;5034850;28;20029;-74
2021/11/28 00:23:20;;;;;;;33.50;30.08;;;2.10;99.80;;;;;;5013690;28;20386;-73
2021/11/28 00:25:46;;;;;;;59.70;52.70;;;2.10;99.70;;;;;;5032206;28;20104;-74
2021/11/28 00:28:13;;;;;;;14.75;8.90;;;2.20;99.60;;;;;;5013827;28;20042;-74
2021/11/28 00:30:40;;;;;;;8.77;7.00;;;2.20;99.40;;;;;;5032185;28;20418;-74
2021/11/28 00:33:07;;;;;;;11.80;7.82;;;2.20;99.40;;;;;;5031131;28;20123;-74
2021/11/28 00:35:34;;;;;;;9.85;8.45;;;2.10;99.40;;;;;;5034634;28;20048;-73
2021/11/28 00:38:00;;;;;;;10.48;6.63;;;2.20;99.40;;;;;;5045217;28;20056;-75
2021/11/28 00:40:26;;;;;;;23.90;21.38;;;2.20;99.50;;;;;;5017754;28;20048;-73
2021/11/28 00:42:54;;;;;;;11.43;7.05;;;2.20;99.60;;;;;;5042009;28;20029;-74
2021/11/28 00:45:21;;;;;;;29.33;26.10;;;2.20;99.60;;;;;;5022191;28;20044;-74
2021/11/28 00:47:47;;;;;;;58.92;42.78;;;2.20;99.70;;;;;;5023775;28;20421;-73
2021/11/28 00:52:40;;;;;;;12.05;5.88;;;2.20;99.70;;;;;;5035743;28;20026;-74
2021/11/28 00:55:09;;;;;;;16.40;10.55;;;2.20;99.60;;;;;;5034793;28;20049;-74
2021/11/28 00:57:36;;;;;;;10.98;7.53;;;2.30;99.60;;;;;;5054316;28;20029;-74
2021/11/28 01:00:06;;;;;;;6.72;5.88;;;2.20;99.50;;;;;;5043759;28;20041;-75
2021/11/28 01:02:35;;;;;;;8.73;5.55;;;2.20;99.50;;;;;;5017651;28;20239;-74
2021/11/28 01:05:04;;;;;;;7.28;6.60;;;2.20;99.50;;;;;;5034141;28;20072;-74
2021/11/28 01:07:32;;;;;;;9.85;4.75;;;2.20;99.50;;;;;;5039209;28;20336;-74
2021/11/28 01:09:59;;;;;;;4.93;4.45;;;2.30;99.50;;;;;;5038059;28;20044;-74
2021/11/28 01:12:25;;;;;;;11.15;5.18;;;2.30;99.40;;;;;;5002783;28;20041;-74
2021/11/28 01:14:52;;;;;;;7.80;4.68;;;2.30;99.60;;;;;;5037380;28;20041;-73
2021/11/28 01:17:21;;;;;;;10.18;5.07;;;2.30;99.70;;;;;;5000508;28;20044;-73
2021/11/28 01:19:47;;;;;;;5.93;4.82;;;2.30;99.90;;;;;;5033810;28;20041;-73
2021/11/28 01:22:15;;;;;;;6.45;4.82;;;2.30;99.90;;;;;;5052694;28;20037;-74
2021/11/28 01:24:41;;;;;;;8.73;6.68;;;2.30;99.90;;;;;;5053992;28;20053;-73
2021/11/28 01:27:11;;;;;;;5.78;5.10;;;2.20;99.90;;;;;;5035382;28;20048;-74
2021/11/28 01:29:38;;;;;;;5.07;4.40;;;2.30;99.90;;;;;;5018363;28;20156;-74
2021/11/28 01:32:05;;;;;;;4.78;4.28;;;2.30;99.90;;;;;;5034919;28;20045;-74
2021/11/28 01:34:32;;;;;;;4.47;3.50;;;2.20;99.90;;;;;;5034687;28;20033;-74
2021/11/28 01:36:58;;;;;;;6.10;4.45;;;2.20;99.90;;;;;;5017597;28;20056;-74
2021/11/28 01:39:25;;;;;;;7.30;3.85;;;2.30;99.90;;;;;;5020813;28;20048;-73
2021/11/28 01:41:52;;;;;;;8.48;4.93;;;2.30;99.90;;;;;;5034308;28;20045;-73
2021/11/28 01:44:18;;;;;;;4.95;4.43;;;2.30;99.90;;;;;;5032433;28;20038;-74
2021/11/28 01:46:44;;;;;;;10.85;4.28;;;2.30;99.90;;;;;;5034325;28;20463;-73
2021/11/28 01:49:15;;;;;;;5.45;4.35;;;2.40;99.90;;;;;;5023629;28;20040;-73
2021/11/28 01:51:42;;;;;;;5.25;3.65;;;2.40;99.90;;;;;;5018406;28;20033;-74
2021/11/28 01:54:13;;;;;;;9.07;4.97;;;2.40;99.90;;;;;;4999366;28;20054;-74
2021/11/28 01:56:42;;;;;;;7.32;4.15;;;2.40;99.90;;;;;;5034380;28;20041;-74
2021/11/28 01:59:10;;;;;;;6.40;3.83;;;2.30;99.90;;;;;;5033256;28;20025;-74
2021/11/28 02:01:38;;;;;;;5.10;4.50;;;2.40;99.90;;;;;;5030636;28;20046;-73
2021/11/28 02:04:07;;;;;;;6.28;4.32;;;2.40;99.90;;;;;;5036176;28;20030;-73
2021/11/28 02:06:33;;;;;;;7.55;4.78;;;2.40;99.90;;;;;;5034065;28;20048;-73
2021/11/28 02:09:00;;;;;;;6.30;4.70;;;2.40;99.90;;;;;;5017307;28;20057;-77
2021/11/28 02:11:26;;;;;;;6.05;4.47;;;2.40;99.90;;;;;;5032276;28;20041;-73
2021/11/28 02:13:53;;;;;;;5.00;4.53;;;2.50;99.90;;;;;;5016376;28;20042;-73
2021/11/28 02:16:20;;;;;;;10.20;4.90;;;2.50;99.90;;;;;;5033018;28;20076;-73
2021/11/28 02:18:46;;;;;;;5.60;3.92;;;2.50;99.90;;;;;;5034713;28;20049;-73
2021/11/28 02:21:14;;;;;;;6.00;4.65;;;2.50;99.90;;;;;;5038501;28;20036;-73
2021/11/28 02:23:40;;;;;;;5.32;4.75;;;2.50;99.90;;;;;;5033894;28;20053;-73
2021/11/28 02:26:14;;;;;;;5.25;4.75;;;2.50;99.90;;;;;;5015858;28;20522;-73
2021/11/28 02:28:42;;;;;;;5.68;4.68;;;2.50;99.90;;;;;;5033967;28;20029;-73
2021/11/28 02:31:09;;;;;;;5.60;3.95;;;2.50;99.90;;;;;;5033019;28;20359;-74
2021/11/28 02:33:35;;;;;;;8.57;4.35;;;2.50;99.90;;;;;;5030661;28;20037;-73
2021/11/28 02:36:02;;;;;;;5.97;4.60;;;2.50;99.90;;;;;;5024702;28;20053;-73
2021/11/28 02:38:29;;;;;;;8.07;4.75;;;2.50;99.90;;;;;;5033966;28;20033;-73
2021/11/28 02:41:00;;;;;;;6.25;4.82;;;2.50;99.90;;;;;;5015900;28;20041;-73
2021/11/28 02:43:29;;;;;;;7.75;4.88;;;2.60;99.90;;;;;;4999007;28;20068;-74
2021/11/28 02:45:56;;;;;;;6.88;5.03;;;2.50;99.90;;;;;;5033503;28;20040;-74
2021/11/28 02:48:25;;;;;;;8.55;5.45;;;2.60;99.90;;;;;;5033782;28;20029;-73
2021/11/28 02:50:51;;;;;;;4.30;3.90;;;2.60;99.90;;;;;;5015594;28;20363;-73
2021/11/28 02:53:20;;;;;;;6.63;5.55;;;2.60;99.90;;;;;;5014739;28;20499;-73
2021/11/28 02:55:50;;;;;;;7.68;5.28;;;2.60;99.90;;;;;;5033187;28;20391;-73
2021/11/28 02:58:19;;;;;;;10.63;5.80;;;2.60;99.90;;;;;;5033054;28;20037;-73
2021/11/28 03:00:52;;;;;;;7.22;6.25;;;2.60;99.90;;;;;;5014703;28;20292;-73
2021/11/28 03:03:19;;;;;;;11.00;6.97;;;2.50;99.90;;;;;;5040638;28;20360;-73
2021/11/28 03:05:46;;;;;;;6.72;5.95;;;2.50;99.90;;;;;;5017872;28;20041;-73
2021/11/28 03:08:18;;;;;;;6.97;6.07;;;2.50;99.90;;;;;;5043864;28;20037;-73
2021/11/28 03:10:47;;;;;;;6.32;4.63;;;2.50;99.90;;;;;;5031885;28;20029;-74
2021/11/28 03:13:19;;;;;;;8.07;5.88;;;2.50;99.90;;;;;;5015799;28;20414;-73
2021/11/28 03:15:47;;;;;;;8.55;5.47;;;2.50;99.90;;;;;;5015060;28;20042;-73
2021/11/28 03:18:16;;;;;;;7.88;5.97;;;2.50;99.90;;;;;;5032807;28;20034;-73
2021/11/28 03:20:43;;;;;;;7.70;7.00;;;2.60;99.90;;;;;;5029061;28;20037;-73
2021/11/28 03:23:12;;;;;;;10.60;7.53;;;2.60;99.90;;;;;;5017857;28;20296;-73
2021/11/28 03:25:38;;;;;;;7.45;6.75;;;2.60;99.90;;;;;;5037747;28;20040;-73
2021/11/28 03:28:05;;;;;;;6.40;5.80;;;2.50;99.90;;;;;;5035085;28;20044;-73
2021/11/28 03:30:31;;;;;;;6.75;6.05;;;2.50;99.90;;;;;;5032482;28;20410;-73
2021/11/28 03:33:06;;;;;;;8.27;6.78;;;2.40;99.90;;;;;;5034722;28;20033;-73
2021/11/28 03:35:50;;;;;;;7.95;6.50;;;2.40;99.90;;;;;;5023033;28;20049;-74
2021/11/28 03:38:16;;;;;;;13.55;7.75;;;2.40;99.90;;;;;;5036830;28;20037;-73
2021/11/28 03:40:44;;;;;;;7.88;6.63;;;2.40;99.90;;;;;;5014857;28;20064;-73
2021/11/28 03:43:11;;;;;;;8.68;7.10;;;2.40;99.90;;;;;;5014075;28;20037;-72
2021/11/28 03:45:38;;;;;;;6.22;5.63;;;2.40;99.90;;;;;;5032517;28;20033;-73
2021/11/28 03:48:09;;;;;;;7.85;7.05;;;2.30;99.90;;;;;;5019234;28;20045;-73
2021/11/28 03:50:40;;;;;;;7.20;6.50;;;2.30;99.90;;;;;;5030766;28;20098;-73
2021/11/28 03:53:09;;;;;;;8.20;6.88;;;2.30;99.90;;;;;;5022940;28;20044;-73
2021/11/28 03:55:36;;;;;;;6.22;5.72;;;2.20;99.90;;;;;;5049561;28;20041;-74
2021/11/28 03:58:04;;;;;;;16.02;6.32;;;2.20;99.90;;;;;;5014170;28;20048;-73
2021/11/28 04:00:31;;;;;;;5.75;5.25;;;2.10;99.90;;;;;;5031926;28;20029;-73
2021/11/28 04:03:07;;;;;;;6.00;5.40;;;2.10;99.90;;;;;;5021721;28;20044;-74
2021/11/28 04:05:33;;;;;;;6.63;5.97;;;2.10;99.90;;;;;;5024677;28;20041;-73
2021/11/28 04:08:00;;;;;;;6.40;5.90;;;2.10;99.90;;;;;;5047734;28;20037;-73
2021/11/28 04:10:26;;;;;;;11.80;6.43;;;2.00;99.90;;;;;;5013417;28;20048;-73
2021/11/28 04:12:53;;;;;;;8.95;6.03;;;2.10;99.90;;;;;;5032360;28;20037;-73
2021/11/28 04:15:19;;;;;;;9.05;6.95;;;2.00;99.90;;;;;;5030124;28;20050;-73
2021/11/28 04:17:55;;;;;;;7.78;6.22;;;2.00;99.90;;;;;;5014085;28;20394;-72
2021/11/28 04:20:22;;;;;;;7.13;6.43;;;2.00;99.90;;;;;;5019509;28;20465;-73
2021/11/28 04:22:49;;;;;;;8.80;6.90;;;2.00;99.90;;;;;;5026326;28;20505;-73
2021/11/28 04:25:16;;;;;;;7.85;5.82;;;2.00;99.90;;;;;;5037204;28;20052;-73
2021/11/28 04:27:43;;;;;;;5.85;5.35;;;2.00;99.90;;;;;;5033706;28;20046;-73
2021/11/28 04:30:12;;;;;;;9.02;6.10;;;2.00;99.90;;;;;;5029501;28;20041;-73
2021/11/28 04:32:39;;;;;;;8.10;7.15;;;2.00;99.90;;;;;;5025947;28;20037;-73
2021/11/28 04:35:07;;;;;;;9.40;6.43;;;2.00;99.90;;;;;;5026849;28;20041;-73
2021/11/28 04:37:33;;;;;;;8.55;7.43;;;2.00;99.90;;;;;;5054640;28;20060;-73
2021/11/28 04:39:59;;;;;;;7.38;6.78;;;2.00;99.90;;;;;;5035484;28;20048;-74
2021/11/28 04:42:28;;;;;;;7.22;6.47;;;2.00;99.90;;;;;;5033544;28;20052;-73
2021/11/28 04:44:54;;;;;;;12.80;6.97;;;2.00;99.90;;;;;;5036114;28;20352;-73
2021/11/28 04:47:21;;;;;;;8.60;7.72;;;2.00;99.90;;;;;;5021866;28;20375;-73
2021/11/28 04:49:58;;;;;;;9.85;8.00;;;2.00;99.90;;;;;;5021850;28;20048;-74
2021/11/28 04:52:26;;;;;;;8.15;7.40;;;2.00;99.90;;;;;;5036549;28;20049;-73
2021/11/28 04:54:52;;;;;;;9.77;8.77;;;1.90;99.90;;;;;;5032046;28;20046;-73
2021/11/28 04:57:19;;;;;;;9.43;8.18;;;1.90;99.90;;;;;;5035206;28;20040;-73
2021/11/28 04:59:47;;;;;;;10.25;7.85;;;1.90;99.90;;;;;;5017704;28;20045;-73
2021/11/28 05:02:14;;;;;;;8.23;7.45;;;1.90;99.90;;;;;;5033275;28;20044;-73
2021/11/28 05:04:43;;;;;;;11.18;8.35;;;1.90;99.90;;;;;;5019045;28;20037;-73
2021/11/28 05:07:39;;;;;;;11.07;8.05;;;1.90;99.90;;;;;;4964016;28;20046;-72
2021/11/28 05:10:06;;;;;;;8.50;7.57;;;1.90;99.90;;;;;;5017204;28;20053;-74
2021/11/28 05:12:45;;;;;;;9.10;8.30;;;2.00;99.90;;;;;;5028527;28;20037;-73
2021/11/28 05:15:12;;;;;;;8.98;8.05;;;2.00;99.90;;;;;;5040769;28;20042;-73
2021/11/28 05:17:53;;;;;;;9.50;8.65;;;2.00;99.90;;;;;;5033615;28;20370;-73
2021/11/28 05:20:20;;;;;;;8.38;7.63;;;1.90;99.90;;;;;;5017430;28;20053;-73
2021/11/28 05:22:52;;;;;;;11.50;9.82;;;1.90;99.90;;;;;;5042265;28;20052;-73
2021/11/28 05:25:21;;;;;;;14.68;9.68;;;1.90;99.90;;;;;;5038347;28;20045;-73
2021/11/28 05:27:49;;;;;;;10.23;9.23;;;2.00;99.90;;;;;;5017140;28;20049;-73
2021/11/28 05:30:16;;;;;;;11.43;9.05;;;2.00;99.90;;;;;;5032465;28;20044;-74
2021/11/28 05:33:14;;;;;;;11.73;10.02;;;1.90;99.90;;;;;;5035011;28;20033;-73
2021/11/28 05:36:00;;;;;;;11.38;10.07;;;1.90;99.90;;;;;;5034433;28;20462;-73
2021/11/28 05:38:47;;;;;;;9.55;8.43;;;1.90;99.90;;;;;;5026194;28;20442;-73
2021/11/28 05:41:13;;;;;;;9.50;8.70;;;1.90;99.90;;;;;;5043560;28;20037;-74
2021/11/28 05:43:43;;;;;;;8.98;7.95;;;1.90;99.90;;;;;;5034518;28;20025;-73
2021/11/28 05:46:09;;;;;;;10.88;7.85;;;1.90;99.90;;;;;;5049638;28;20052;-73
2021/11/28 05:48:54;;;;;;;51.53;46.08;;;1.90;99.90;;;;;;5029931;28;20041;-73
2021/11/28 05:51:40;;;;;;;26.45;23.60;;;1.90;99.90;;;;;;5017117;28;20037;-73
2021/11/28 05:54:08;;;;;;;38.80;34.85;;;1.90;99.90;;;;;;5015311;28;20041;-73
2021/11/28 05:56:35;;;;;;;58.13;51.20;;;1.90;99.90;;;;;;5037258;28;20041;-73
2021/11/28 05:59:02;;;;;;;11.68;9.48;;;1.90;99.90;;;;;;5024312;28;20044;-73
2021/11/28 06:01:28;;;;;;;17.88;11.98;;;1.90;99.90;;;;;;5034104;28;20040;-73
2021/11/28 06:03:54;;;;;;;19.45;17.65;;;1.90;99.90;;;;;;5035387;28;20407;-74
2021/11/28 06:06:43;;;;;;;29.42;26.13;;;1.90;99.90;;;;;;5045837;28;20040;-73
2021/11/28 06:09:13;;;;;;;12.43;11.23;;;1.90;99.90;;;;;;5040685;28;20045;-73
2021/11/28 06:11:40;;;;;;;9.57;8.68;;;1.90;99.90;;;;;;5015872;28;20295;-74
2021/11/28 06:14:06;;;;;;;6.90;6.20;;;1.90;99.90;;;;;;5029444;28;20046;-73
2021/11/28 06:16:53;;;;;;;14.63;13.32;;;1.90;99.90;;;;;;5022276;28;20056;-74
2021/11/28 06:19:38;;;;;;;9.65;8.65;;;1.90;99.90;;;;;;5034157;28;20041;-73
2021/11/28 06:22:27;;;;;;;9.60;8.70;;;1.90;99.90;;;;;;4996475;28;20045;-74
2021/11/28 06:24:57;;;;;;;16.40;8.48;;;2.00;99.90;;;;;;5015906;28;20389;-73
2021/11/28 06:27:33;;;;;;;12.82;9.82;;;2.00;99.90;;;;;;5026459;28;20049;-73
2021/11/28 06:29:59;;;;;;;15.70;9.00;;;2.00;99.90;;;;;;5033394;28;20402;-74
2021/11/28 06:32:46;;;;;;;10.40;8.48;;;1.90;99.90;;;;;;5033401;28;20502;-73
2021/11/28 06:35:31;;;;;;;8.30;7.45;;;2.00;99.90;;;;;;5033742;28;20533;-73
2021/11/28 06:38:26;;;;;;;8.95;8.00;;;2.00;99.90;;;;;;4967794;28;20190;-73
2021/11/28 06:41:11;;;;;;;10.98;7.30;;;2.00;99.90;;;;;;5051228;28;20037;-73
2021/11/28 06:43:37;;;;;;;9.38;8.20;;;1.90;99.90;;;;;;5002190;28;20042;-73
2021/11/28 06:46:04;;;;;;;11.77;8.75;;;2.00;99.90;;;;;;5033750;28;20052;-73
2021/11/28 06:48:31;;;;;;;9.43;8.27;;;1.90;99.90;;;;;;5015523;28;20041;-73
2021/11/28 06:51:24;;;;;;;7.47;6.85;;;1.90;99.90;;;;;;5014019;28;20483;-74
2021/11/28 06:53:50;;;;;;;16.08;13.88;;;1.90;99.90;;;;;;5015037;28;20044;-73
2021/11/28 06:56:42;;;;;;;9.80;8.90;;;1.90;99.90;;;;;;5030206;28;20038;-73
2021/11/28 06:59:09;;;;;;;29.02;26.48;;;1.90;99.90;;;;;;5014813;28;20041;-74
2021/11/28 07:01:43;;;;;;;13.35;12.23;;;1.90;99.90;;;;;;5029516;28;20478;-74
2021/11/28 07:04:28;;;;;;;9.85;8.90;;;2.00;99.90;;;;;;5036300;28;20040;-73
2021/11/28 07:07:13;;;;;;;29.75;25.15;;;2.00;99.90;;;;;;5033150;28;20033;-73
2021/11/28 07:09:46;;;;;;;11.27;10.00;;;2.00;99.90;;;;;;5015097;28;20371;-73
2021/11/28 07:12:12;;;;;;;16.02;8.20;;;2.00;99.90;;;;;;5030738;28;20044;-73
2021/11/28 07:14:40;;;;;;;20.75;17.63;;;2.00;99.90;;;;;;5017020;28;20041;-73
2021/11/28 07:17:07;;;;;;;41.42;37.33;;;2.00;99.90;;;;;;5014373;28;20058;-73
2021/11/28 07:19:40;;;;;;;13.32;10.55;;;2.00;99.90;;;;;;5014593;28;20048;-74
2021/11/28 07:22:15;;;;;;;45.30;40.55;;;2.00;99.90;;;;;;5029568;28;20462;-73
2021/11/28 07:24:43;;;;;;;39.33;35.30;;;2.00;99.90;;;;;;5026306;28;20037;-73
2021/11/28 07:27:10;;;;;;;10.63;9.57;;;2.00;99.90;;;;;;5014590;28;20041;-73
2021/11/28 07:29:36;;;;;;;14.82;12.10;;;2.00;99.90;;;;;;5032591;28;20036;-74
2021/11/28 07:32:03;;;;;;;44.58;32.08;;;2.00;99.90;;;;;;5032033;28;20049;-73
2021/11/28 07:34:48;;;;;;;43.92;37.20;;;2.00;99.90;;;;;;5042504;28;20044;-73
2021/11/28 07:37:34;;;;;;;30.42;27.23;;;1.90;99.90;;;;;;5032373;28;20037;-73
2021/11/28 07:40:04;;;;;;;16.55;14.60;;;1.90;99.90;;;;;;5015101;28;20029;-73
2021/11/28 07:42:31;;;;;;;66.97;54.95;;;2.00;99.90;;;;;;5014926;28;20045;-73
2021/11/28 07:44:57;;;;;;;17.02;13.95;;;1.90;99.90;;;;;;5034447;28;20042;-73
2021/11/28 07:47:42;;;;;;;14.68;12.05;;;2.00;99.90;;;;;;5042171;28;20055;-74
2021/11/28 07:50:23;;;;;;;25.20;16.67;;;2.00;99.90;;;;;;5022679;28;20037;-73
2021/11/28 07:52:50;;;;;;;151.35;116.03;;;2.00;99.90;;;;;;5028936;28;20052;-74
2021/11/28 07:55:24;;;;;;;106.68;79.57;;;2.10;99.90;;;;;;5025915;28;20080;-73
2021/11/28 07:58:00;;;;;;;18.17;10.73;;;2.10;99.90;;;;;;5036389;28;20060;-73
2021/11/28 08:00:39;;;;;;;10.63;8.00;;;2.10;99.90;;;;;;5012432;28;20053;-75
2021/11/28 08:03:17;;;;;;;23.23;20.50;;;2.10;99.90;;;;;;5037005;28;20474;-74
2021/11/28 08:06:02;;;;;;;128.73;111.97;;;2.20;99.90;;;;;;5057056;28;20052;-74
2021/11/28 08:09:07;;;;;;;40.22;27.42;;;2.20;99.90;;;;;;5000240;28;20407;-75
2021/11/28 08:11:40;;;;;;;62.08;52.70;;;2.30;99.90;;;;;;4998433;28;20430;-74
2021/11/28 08:14:06;;;;;;;9.35;8.35;;;2.30;99.90;;;;;;5015695;28;20046;-78
2021/11/28 08:16:33;;;;;;;34.88;20.25;;;2.40;99.90;;;;;;5055594;28;20037;-74
2021/11/28 08:18:59;;;;;;;8.50;7.70;;;2.50;99.90;;;;;;5059141;28;20028;-74
2021/11/28 08:21:28;;;;;;;122.18;95.82;;;2.50;99.90;;;;;;5057720;28;20044;-74
2021/11/28 08:24:04;;;;;;;42.75;35.63;;;2.50;99.90;;;;;;5040933;28;20032;-74
2021/11/28 08:26:32;;;;;;;29.15;21.90;;;2.60;99.90;;;;;;5060734;28;20039;-74
2021/11/28 08:28:59;;;;;;;14.90;12.32;;;2.70;99.90;;;;;;5059102;28;20029;-76
2021/11/28 08:31:25;;;;;;;9.52;8.50;;;2.60;99.90;;;;;;5055260;28;20052;-73
2021/11/28 08:34:12;;;;;;;15.63;13.13;;;2.60;99.90;;;;;;5065928;28;20041;-74
2021/11/28 08:36:51;;;;;;;42.20;29.10;;;2.70;99.90;;;;;;5039981;28;20045;-73
2021/11/28 08:39:17;;;;;;;16.95;7.70;;;2.70;99.90;;;;;;5060713;28;20060;-74
2021/11/28 08:41:43;;;;;;;12.18;10.90;;;2.80;99.90;;;;;;5038914;28;20029;-73
2021/11/28 08:44:12;;;;;;;11.65;10.52;;;2.80;99.90;;;;;;5059133;28;20047;-74
2021/11/28 08:46:38;;;;;;;58.63;47.58;;;2.90;99.90;;;;;;5037047;28;20041;-74
2021/11/28 08:49:05;;;;;;;16.10;11.38;;;2.90;99.90;;;;;;5031978;28;20043;-73
2021/11/28 08:51:31;;;;;;;16.92;15.25;;;3.00;99.90;;;;;;5031507;28;20029;-73
2021/11/28 08:53:58;;;;;;;17.40;15.68;;;3.00;99.90;;;;;;5055615;28;20028;-74
2021/11/28 08:56:25;;;;;;;31.25;28.25;;;3.10;99.90;;;;;;5054295;28;20497;-74
2021/11/28 08:58:52;;;;;;;10.70;8.60;;;3.10;99.90;;;;;;5040570;28;20474;-74
2021/11/28 09:01:18;;;;;;;11.38;9.55;;;3.20;99.90;;;;;;5039809;28;20029;-73
2021/11/28 09:03:44;;;;;;;6.65;6.05;;;3.20;99.90;;;;;;5056884;28;20029;-73
2021/11/28 09:06:14;;;;;;;95.72;74.68;;;3.20;99.90;;;;;;5057775;28;20031;-74
2021/11/28 09:08:40;;;;;;;22.85;18.63;;;3.20;99.90;;;;;;5061483;28;20040;-73
2021/11/28 09:11:07;;;;;;;19.42;17.42;;;3.20;99.90;;;;;;5047237;28;20044;-74
2021/11/28 09:13:35;;;;;;;13.55;11.25;;;3.30;99.90;;;;;;5035739;28;20037;-73
2021/11/28 09:16:02;;;;;;;27.88;23.85;;;3.20;99.90;;;;;;5035432;28;20041;-73
2021/11/28 09:18:55;;;;;;;12.52;11.35;;;3.30;99.90;;;;;;5054041;28;20055;-73
2021/11/28 09:21:17;;;;;;;17.05;15.13;;;3.30;99.90;;;;;;5044006;28;20056;-74
2021/11/28 09:26:31;;;;;;;9.38;7.20;;;3.30;99.90;;;;;;5057638;28;20041;-75
2021/11/28 09:29:02;;;;;;;6.13;5.63;;;3.30;99.90;;;;;;5053527;28;20033;-74
2021/11/28 09:31:32;;;;;;;13.40;11.90;;;3.30;99.90;;;;;;5013405;28;20121;-74
2021/11/28 09:33:59;;;;;;;16.20;8.93;;;3.30;99.90;;;;;;5014332;28;20494;-74
2021/11/28 09:36:27;;;;;;;21.35;17.58;;;3.30;99.90;;;;;;5014529;28;20038;-74
2021/11/28 09:38:54;;;;;;;14.65;8.75;;;3.30;99.90;;;;;;5014961;28;20378;-73
2021/11/28 09:41:24;;;;;;;8.88;7.53;;;3.30;99.90;;;;;;5013893;28;20026;-74
2021/11/28 09:43:55;;;;;;;19.67;16.17;;;3.30;99.90;;;;;;5014726;28;20033;-73
2021/11/28 09:46:24;;;;;;;9.57;7.63;;;3.40;99.90;;;;;;5014522;28;20037;-73
2021/11/28 09:48:57;;;;;;;22.27;10.10;;;3.50;99.90;;;;;;5013430;28;20376;-73
2021/11/28 09:51:29;;;;;;;27.05;22.10;;;3.40;99.90;;;;;;5013550;28;20038;-74
2021/11/28 09:54:03;;;;;;;21.73;18.58;;;3.50;99.90;;;;;;5014551;28;20045;-74
2021/11/28 09:56:45;;;;;;;9.80;7.55;;;3.50;99.90;;;;;;5027016;28;20041;-77
2021/11/28 09:59:36;;;;;;;15.95;9.57;;;3.50;99.90;;;;;;5030087;28;20036;-74
2021/11/28 10:02:38;;;;;;;8.88;8.02;;;3.50;99.90;;;;;;5038845;28;20025;-74
2021/11/28 10:05:32;;;;;;;10.60;9.38;;;3.50;99.90;;;;;;5031747;28;20037;-73
2021/11/28 10:08:16;;;;;;;6.97;6.28;;;3.60;99.90;;;;;;5021677;28;20461;-76
2021/11/28 10:11:22;;;;;;;8.05;6.78;;;3.60;99.90;;;;;;5014137;28;20380;-73
2021/11/28 10:14:22;;;;;;;7.30;5.55;;;3.60;99.90;;;;;;5014501;28;20045;-73
2021/11/28 10:17:16;;;;;;;7.40;6.47;;;3.60;99.90;;;;;;5014000;28;20101;-73
2021/11/28 10:19:58;;;;;;;8.13;6.38;;;3.60;99.90;;;;;;5011065;28;20049;-75
2021/11/28 10:22:25;;;;;;;10.23;7.97;;;3.60;99.90;;;;;;5014525;28;20030;-73
2021/11/28 10:25:00;;;;;;;6.53;5.95;;;3.70;99.90;;;;;;5014747;28;20498;-72
2021/11/28 10:27:55;;;;;;;8.60;7.63;;;3.70;99.90;;;;;;5022296;28;20044;-73
2021/11/28 10:30:27;;;;;;;6.90;6.30;;;3.70;99.90;;;;;;5023017;28;20045;-76
2021/11/28 10:32:55;;;;;;;7.15;6.45;;;3.60;99.50;;;;;;5033673;28;20398;-74
2021/11/28 10:35:22;;;;;;;8.15;7.40;;;3.70;99.90;;;;;;5052404;28;20479;-73
2021/11/28 10:37:53;;;;;;;7.95;7.05;;;3.70;99.90;;;;;;5034750;28;20052;-73
2021/11/28 10:40:24;;;;;;;;;;;3.70;99.90;;;;;;5033299;28;20037;-73
2021/11/28 10:43:07;;;;;;;8.02;6.32;;;3.70;99.90;;;;;;5033626;28;19916;-74
2021/11/28 10:45:38;;;;;;;6.43;5.82;;;3.70;99.40;;;;;;5032991;28;20026;-75
2021/11/28 10:48:07;;;;;;;10.57;8.07;;;3.70;99.20;;;;;;5032940;28;20056;-74
2021/11/28 10:50:36;;;;;;;10.68;8.75;;;3.80;99.80;;;;;;5043505;28;20458;-74
2021/11/28 10:53:04;;;;;;;19.92;11.38;;;3.80;99.70;;;;;;5033294;28;20056;-74
2021/11/28 10:55:40;;;;;;;14.25;12.50;;;3.90;99.00;;;;;;5032865;28;20044;-74
2021/11/28 10:58:18;;;;;;;9.35;8.50;;;3.90;99.20;;;;;;5033430;28;20045;-75
2021/11/28 11:00:50;;;;;;;8.77;7.85;;;4.00;99.20;;;;;;5032933;28;20034;-75
2021/11/28 11:03:37;;;;;;;8.38;7.57;;;4.00;98.90;;;;;;5042353;28;20029;-74
2021/11/28 11:06:21;;;;;;;8.65;7.80;;;4.10;99.10;;;;;;5038371;28;20045;-74
2021/11/28 11:08:54;;;;;;;8.50;7.60;;;4.10;98.80;;;;;;5032936;28;20060;-74
2021/11/28 11:11:21;;;;;;;11.05;6.10;;;4.20;98.60;;;;;;5033304;28;20033;-74
2021/11/28 11:13:58;;;;;;;6.07;5.47;;;4.20;98.60;;;;;;5032857;28;20041;-75
2021/11/28 11:16:31;;;;;;;5.80;5.30;;;4.30;97.90;;;;;;5022468;28;20486;-76
2021/11/28 11:19:28;;;;;;;10.20;6.25;;;4.20;96.90;;;;;;5030888;28;20057;-74
2021/11/28 11:22:15;;;;;;;7.47;6.15;;;4.30;96.90;;;;;;5008076;28;20052;-74
2021/11/28 11:24:51;;;;;;;5.50;4.93;;;4.30;96.60;;;;;;5015878;28;20044;-75
2021/11/28 11:27:30;;;;;;;12.65;8.80;;;4.30;96.10;;;;;;5039865;28;20044;-73
2021/11/28 11:30:00;;;;;;;6.78;6.15;;;4.40;97.10;;;;;;5044510;28;20033;-73
2021/11/28 11:32:39;;;;;;;8.13;5.70;;;4.40;95.70;;;;;;5029472;28;20052;-73
2021/11/28 11:35:09;;;;;;;11.38;10.38;;;4.40;96.30;;;;;;5022266;28;20041;-74
2021/11/28 11:37:38;;;;;;;8.07;7.03;;;4.50;97.20;;;;;;5031788;28;20045;-77
2021/11/28 11:40:09;;;;;;;15.27;11.43;;;4.50;96.70;;;;;;5051461;28;20455;-76
2021/11/28 11:42:38;;;;;;;9.75;8.93;;;4.60;97.10;;;;;;5032269;28;20056;-75
2021/11/28 11:45:07;;;;;;;17.83;14.85;;;4.70;97.00;;;;;;5051217;28;20351;-76
2021/11/28 11:47:34;;;;;;;5.95;5.32;;;4.70;96.20;;;;;;5051077;28;20140;-73
2021/11/28 11:50:01;;;;;;;14.70;12.82;;;4.70;95.90;;;;;;5041948;28;20033;-74
2021/11/28 11:52:27;;;;;;;18.75;14.77;;;4.80;95.60;;;;;;5032170;28;20048;-73
2021/11/28 11:55:00;;;;;;;9.57;6.88;;;4.80;95.90;;;;;;5032009;28;20044;-73
2021/11/28 11:57:38;;;;;;;7.88;7.05;;;4.70;95.00;;;;;;5040451;28;20048;-74
2021/11/28 12:00:26;;;;;;;6.47;5.88;;;4.50;95.10;;;;;;5034592;28;20044;-74
2021/11/28 12:02:54;;;;;;;7.57;6.88;;;4.40;95.50;;;;;;5036868;28;20041;-74
2021/11/28 12:05:31;;;;;;;10.45;5.28;;;4.40;96.40;;;;;;5013623;28;20042;-75
2021/11/28 12:08:08;;;;;;;6.10;5.50;;;4.40;95.40;;;;;;5030741;28;20597;-74
2021/11/28 12:10:40;;;;;;;5.93;5.43;;;4.40;95.70;;;;;;5011265;28;20204;-74
2021/11/28 12:13:29;;;;;;;7.30;6.60;;;4.40;95.60;;;;;;5033727;28;20029;-74
2021/11/28 12:16:18;;;;;;;9.27;7.78;;;4.40;95.40;;;;;;5035915;28;20041;-75
2021/11/28 12:18:49;;;;;;;5.78;5.25;;;4.40;96.10;;;;;;5023330;28;20056;-74
2021/11/28 12:21:18;;;;;;;6.40;5.78;;;4.40;95.30;;;;;;5024509;28;20049;-76
2021/11/28 12:23:55;;;;;;;7.03;6.25;;;4.50;95.00;;;;;;5032994;28;20033;-75
2021/11/28 12:26:30;;;;;;;6.70;5.25;;;4.40;94.80;;;;;;5032103;28;20040;-76
2021/11/28 12:29:08;;;;;;;7.85;6.07;;;4.40;94.60;;;;;;5032188;28;20052;-76
2021/11/28 12:31:46;;;;;;;4.82;4.15;;;4.40;94.80;;;;;;5031358;28;20627;-75
2021/11/28 12:34:26;;;;;;;7.47;5.50;;;4.40;94.80;;;;;;5027199;28;20080;-76
2021/11/28 12:36:55;;;;;;;7.57;6.18;;;4.50;95.10;;;;;;5050726;28;20029;-74
2021/11/28 12:39:23;;;;;;;6.65;6.00;;;4.60;94.70;;;;;;5047944;28;20044;-74
2021/11/28 12:42:10;;;;;;;7.10;6.15;;;4.60;95.00;;;;;;5041039;28;20030;-75
2021/11/28 12:44:58;;;;;;;6.60;5.57;;;4.70;94.90;;;;;;5027536;28;20040;-74
2021/11/28 12:47:29;;;;;;;5.65;5.10;;;4.70;93.50;;;;;;5053712;28;20056;-74
2021/11/28 12:50:01;;;;;;;;;;;4.60;93.30;;;;;;5044665;28;20029;-74
2021/11/28 12:52:37;;;;;;;8.35;5.28;;;4.50;93.50;;;;;;5018164;28;19920;-74
2021/11/28 12:55:12;;;;;;;6.00;4.93;;;4.50;94.10;;;;;;5036171;28;20036;-74
2021/11/28 12:57:59;;;;;;;5.22;4.72;;;4.50;93.90;;;;;;5035556;28;20049;-74
2021/11/28 13:00:29;;;;;;;8.35;5.32;;;4.50;94.20;;;;;;5016834;28;20045;-76
2021/11/28 13:02:58;;;;;;;7.15;5.05;;;4.60;94.20;;;;;;5034708;28;20045;-77
2021/11/28 13:05:31;;;;;;;5.68;5.18;;;4.50;93.50;;;;;;5035159;28;20036;-75
2021/11/28 13:08:00;;;;;;;5.85;4.53;;;4.50;93.80;;;;;;5035072;28;20478;-75
2021/11/28 13:10:48;;;;;;;4.95;4.40;;;4.50;93.50;;;;;;5034569;28;20045;-76
2021/11/28 13:13:26;;;;;;;12.30;5.57;;;4.40;93.20;;;;;;5035197;28;20034;-78
2021/11/28 13:15:55;;;;;;;6.55;4.90;;;4.40;93.10;;;;;;5041531;28;20033;-75
2021/11/28 13:18:34;;;;;;;6.65;6.05;;;4.30;93.10;;;;;;5047007;28;20037;-75
2021/11/28 13:21:12;;;;;;;7.40;5.63;;;4.30;93.70;;;;;;5035350;28;20048;-75
2021/11/28 13:24:00;;;;;;;7.72;5.80;;;4.30;93.80;;;;;;5044126;28;20060;-76
2021/11/28 13:27:01;;;;;;;6.68;6.07;;;4.30;93.90;;;;;;5051887;28;20033;-75
2021/11/28 13:29:52;;;;;;;7.35;6.65;;;4.40;94.20;;;;;;5037650;28;20071;-75